createdAt,value
2022-10-23T00:01:36.958Z,15.90
2022-10-23T00:04:12.289Z,15.90
2022-10-23T00:06:39.753Z,15.90
2022-10-23T00:09:08.268Z,15.90
2022-10-23T00:11:36.624Z,15.90
2022-10-23T00:14:06.032Z,15.80
2022-10-23T00:16:33.202Z,15.80
2022-10-23T00:19:00.271Z,15.80
2022-10-23T00:21:27.530Z,15.80
2022-10-23T00:23:54.448Z,15.80
2022-10-23T00:26:21.643Z,15.80
2022-10-23T00:28:51.552Z,15.80
2022-10-23T00:31:20.043Z,15.80
2022-10-23T00:33:48.057Z,15.80
2022-10-23T00:36:17.023Z,15.80
2022-10-23T00:38:44.311Z,15.80
2022-10-23T00:41:17.180Z,15.80
2022-10-23T00:44:18.006Z,15.80
2022-10-23T00:46:46.111Z,15.70
2022-10-23T00:49:13.714Z,15.70
2022-10-23T00:51:53.436Z,15.70
2022-10-23T00:54:24.862Z,15.70
2022-10-23T00:57:01.300Z,15.70
2022-10-23T00:59:29.217Z,15.70
2022-10-23T01:01:56.503Z,15.70
2022-10-23T01:04:24.616Z,15.70
2022-10-23T01:07:03.498Z,15.60
2022-10-23T01:09:36.490Z,15.50
2022-10-23T01:12:35.435Z,15.50
2022-10-23T01:15:15.723Z,15.50
2022-10-23T01:18:14.834Z,15.50
2022-10-23T01:21:03.889Z,15.50
2022-10-23T01:23:48.207Z,15.40
2022-10-23T01:26:56.757Z,15.30
2022-10-23T01:29:55.673Z,15.40
2022-10-23T01:32:33.689Z,15.30
2022-10-23T01:35:07.748Z,15.40
2022-10-23T01:38:04.890Z,15.40
2022-10-23T01:40:40.229Z,15.30
2022-10-23T01:43:19.795Z,15.30
2022-10-23T01:45:51.290Z,15.30
2022-10-23T01:48:22.387Z,15.20
2022-10-23T01:50:51.054Z,15.20
2022-10-23T01:53:19.494Z,15.20
2022-10-23T01:55:47.855Z,15.20
2022-10-23T01:58:16.253Z,15.30
2022-10-23T02:00:47.171Z,15.30
2022-10-23T02:03:17.504Z,15.30
2022-10-23T02:05:45.422Z,15.40
2022-10-23T02:08:12.877Z,15.40
2022-10-23T02:10:53.794Z,15.40
2022-10-23T02:13:26.177Z,15.30
2022-10-23T02:16:02.221Z,15.40
2022-10-23T02:18:38.150Z,15.40
2022-10-23T02:21:14.357Z,15.40
2022-10-23T02:23:56.179Z,15.40
2022-10-23T02:26:48.687Z,15.50
2022-10-23T02:29:24.897Z,15.40
2022-10-23T02:31:51.846Z,15.40
2022-10-23T02:34:19.321Z,15.40
2022-10-23T02:36:46.760Z,15.40
2022-10-23T02:39:13.780Z,15.40
2022-10-23T02:41:55.163Z,15.50
2022-10-23T02:44:28.021Z,15.40
2022-10-23T02:47:13.702Z,15.40
2022-10-23T02:50:00.442Z,15.40
2022-10-23T02:53:04.173Z,15.40
2022-10-23T02:55:50.705Z,15.40
2022-10-23T02:58:32.479Z,15.50
2022-10-23T03:01:18.572Z,15.50
2022-10-23T03:03:51.539Z,15.50
2022-10-23T03:06:18.569Z,15.50
2022-10-23T03:08:59.309Z,15.60
2022-10-23T03:11:26.602Z,15.60
2022-10-23T03:13:53.607Z,15.50
2022-10-23T03:16:20.526Z,15.50
2022-10-23T03:18:47.458Z,15.40
2022-10-23T03:21:14.401Z,15.30
2022-10-23T03:23:41.282Z,15.20
2022-10-23T03:26:08.296Z,15.20
2022-10-23T03:28:38.264Z,15.10
2022-10-23T03:31:05.337Z,15.00
2022-10-23T03:33:32.633Z,15.00
2022-10-23T03:35:59.485Z,15.00
2022-10-23T03:38:26.438Z,14.90
2022-10-23T03:40:53.341Z,14.90
2022-10-23T03:43:20.275Z,14.90
2022-10-23T03:45:47.200Z,14.90
2022-10-23T03:48:14.846Z,14.80
2022-10-23T03:50:41.781Z,14.80
2022-10-23T03:53:08.661Z,14.90
2022-10-23T03:55:35.555Z,14.90
2022-10-23T03:58:02.522Z,14.90
2022-10-23T04:00:29.502Z,14.90
2022-10-23T04:02:56.677Z,14.90
2022-10-23T04:05:23.569Z,15.00
2022-10-23T04:07:50.475Z,15.00
2022-10-23T04:10:17.398Z,15.00
2022-10-23T04:12:44.399Z,15.10
2022-10-23T04:15:11.721Z,15.10
2022-10-23T04:17:38.598Z,15.10
2022-10-23T04:20:05.739Z,15.00
2022-10-23T04:22:32.675Z,15.00
2022-10-23T04:24:59.548Z,14.90
2022-10-23T04:27:26.480Z,14.90
2022-10-23T04:29:55.564Z,14.90
2022-10-23T04:32:25.164Z,14.80
2022-10-23T04:34:52.112Z,14.80
2022-10-23T04:37:19.024Z,14.80
2022-10-23T04:39:45.967Z,14.80
2022-10-23T04:42:12.875Z,14.70
2022-10-23T04:44:39.925Z,14.70
2022-10-23T04:47:06.962Z,14.70
2022-10-23T04:49:33.836Z,14.70
2022-10-23T04:52:00.810Z,14.60
2022-10-23T04:54:27.731Z,14.60
2022-10-23T04:56:54.600Z,14.60
2022-10-23T04:59:21.487Z,14.60
2022-10-23T05:01:48.394Z,14.60
2022-10-23T05:04:15.379Z,14.60
2022-10-23T05:06:42.315Z,14.70
2022-10-23T05:09:09.186Z,14.70
2022-10-23T05:11:36.412Z,14.70
2022-10-23T05:14:03.359Z,14.70
2022-10-23T05:16:42.987Z,14.80
2022-10-23T05:19:14.224Z,14.80
2022-10-23T05:21:41.916Z,14.90
2022-10-23T05:24:10.337Z,14.90
2022-10-23T05:26:37.379Z,15.00
2022-10-23T05:29:04.343Z,15.00
2022-10-23T05:31:32.992Z,15.00
2022-10-23T05:34:00.871Z,15.10
2022-10-23T05:36:27.967Z,15.00
2022-10-23T05:38:55.116Z,15.10
2022-10-23T05:41:22.126Z,15.10
2022-10-23T05:43:49.100Z,15.20
2022-10-23T05:46:16.018Z,15.20
2022-10-23T05:48:42.868Z,15.10
2022-10-23T05:51:12.043Z,15.20
2022-10-23T05:53:41.752Z,15.30
2022-10-23T05:56:09.914Z,15.40
2022-10-23T05:58:36.877Z,15.40
2022-10-23T06:01:09.012Z,15.50
2022-10-23T06:03:36.874Z,15.50
2022-10-23T06:06:04.315Z,15.60
2022-10-23T06:08:32.235Z,15.60
2022-10-23T06:10:59.204Z,15.70
2022-10-23T06:13:26.096Z,15.80
2022-10-23T06:15:53.095Z,15.90
2022-10-23T06:18:19.976Z,16.00
2022-10-23T06:20:46.927Z,16.10
2022-10-23T06:23:13.815Z,16.10
2022-10-23T06:25:40.701Z,16.00
2022-10-23T06:28:07.629Z,16.10
2022-10-23T06:30:34.565Z,16.20
2022-10-23T06:33:04.516Z,16.20
2022-10-23T06:35:33.396Z,16.30
2022-10-23T06:38:00.259Z,16.30
2022-10-23T06:40:27.193Z,16.30
2022-10-23T06:42:56.570Z,16.30
2022-10-23T06:45:23.539Z,16.20
2022-10-23T06:47:51.469Z,16.20
2022-10-23T06:50:18.727Z,16.10
2022-10-23T06:52:47.705Z,16.20
2022-10-23T06:55:15.108Z,16.30
2022-10-23T06:57:42.981Z,16.10
2022-10-23T07:00:11.014Z,16.00
2022-10-23T07:02:37.981Z,16.20
2022-10-23T07:05:07.707Z,16.10
2022-10-23T07:07:36.878Z,16.10
2022-10-23T07:10:04.694Z,16.20
2022-10-23T07:12:31.618Z,16.20
2022-10-23T07:14:58.571Z,16.20
2022-10-23T07:17:25.511Z,16.40
2022-10-23T07:19:52.382Z,16.70
2022-10-23T07:22:19.270Z,16.80
2022-10-23T07:24:46.148Z,16.90
2022-10-23T07:27:13.091Z,17.00
2022-10-23T07:29:40.040Z,17.00
2022-10-23T07:32:06.921Z,16.70
2022-10-23T07:34:33.920Z,16.70
2022-10-23T07:37:00.811Z,17.00
2022-10-23T07:39:27.882Z,17.20
2022-10-23T07:41:54.785Z,17.40
2022-10-23T07:44:23.162Z,17.50
2022-10-23T07:46:52.674Z,17.60
2022-10-23T07:49:19.621Z,17.70
2022-10-23T07:51:50.563Z,17.80
2022-10-23T07:54:19.020Z,18.00
2022-10-23T07:56:45.927Z,18.10
2022-10-23T07:59:13.352Z,18.30
2022-10-23T08:01:42.613Z,18.10
2022-10-23T08:04:10.920Z,18.20
2022-10-23T08:06:38.430Z,18.50
2022-10-23T08:09:06.726Z,18.70
2022-10-23T08:11:35.849Z,18.60
2022-10-23T08:14:04.787Z,18.70
2022-10-23T08:16:37.027Z,18.80
2022-10-23T08:19:08.205Z,18.70
2022-10-23T08:21:35.326Z,18.80
2022-10-23T08:24:02.291Z,18.80
2022-10-23T08:26:29.543Z,18.50
2022-10-23T08:28:58.761Z,18.60
2022-10-23T08:31:26.366Z,18.60
2022-10-23T08:33:53.298Z,18.90
2022-10-23T08:36:23.189Z,19.10
2022-10-23T08:38:50.396Z,19.20
2022-10-23T08:41:34.370Z,19.20
2022-10-23T08:44:24.061Z,19.30
2022-10-23T08:47:16.507Z,19.50
2022-10-23T08:49:57.249Z,19.50
2022-10-23T08:52:39.750Z,19.50
2022-10-23T08:55:33.249Z,19.30
2022-10-23T08:58:32.173Z,19.10
2022-10-23T09:00:59.285Z,19.10
2022-10-23T09:03:27.665Z,19.20
2022-10-23T09:06:31.035Z,19.30
2022-10-23T09:09:00.817Z,19.20
2022-10-23T09:11:51.371Z,19.30
2022-10-23T09:14:25.190Z,19.10
2022-10-23T09:19:45.902Z,19.40
2022-10-23T09:22:13.793Z,19.30
2022-10-23T09:24:43.525Z,19.40
2022-10-23T09:27:17.006Z,19.40
2022-10-23T09:29:53.450Z,19.50
2022-10-23T09:32:32.159Z,19.90
2022-10-23T09:34:59.149Z,19.90
2022-10-23T09:37:32.694Z,19.90
2022-10-23T09:40:15.582Z,19.80
2022-10-23T09:42:53.629Z,20.00
2022-10-23T09:45:35.307Z,20.10
2022-10-23T09:48:11.617Z,20.20
2022-10-23T09:50:43.191Z,20.40
2022-10-23T09:53:17.237Z,20.50
2022-10-23T09:55:51.559Z,20.60
2022-10-23T09:58:25.122Z,20.80
2022-10-23T10:00:54.731Z,20.80
2022-10-23T10:03:24.112Z,20.60
2022-10-23T10:06:00.538Z,20.20
2022-10-23T10:08:44.456Z,20.40
2022-10-23T10:11:31.466Z,20.40
2022-10-23T10:14:13.227Z,20.40
2022-10-23T10:16:48.979Z,20.60
2022-10-23T10:19:21.396Z,20.80
2022-10-23T10:21:56.056Z,20.90
2022-10-23T10:24:30.838Z,20.90
2022-10-23T10:27:18.526Z,20.90
2022-10-23T10:30:10.564Z,21.00
2022-10-23T10:32:50.586Z,21.10
2022-10-23T10:35:34.354Z,21.10
2022-10-23T10:38:19.752Z,21.20
2022-10-23T10:41:18.505Z,21.50
2022-10-23T10:44:17.388Z,21.40
2022-10-23T10:47:15.932Z,21.30
2022-10-23T10:49:45.442Z,21.40
2022-10-23T10:52:31.521Z,21.70
2022-10-23T10:55:23.547Z,21.80
2022-10-23T10:58:02.605Z,22.00
2022-10-23T11:00:31.502Z,22.00
2022-10-23T11:03:04.329Z,22.20
2022-10-23T11:05:41.153Z,22.20
2022-10-23T11:08:21.630Z,22.10
2022-10-23T11:11:00.401Z,22.40
2022-10-23T11:13:40.372Z,22.30
2022-10-23T11:16:24.037Z,22.30
2022-10-23T11:19:14.096Z,22.30
2022-10-23T11:22:09.923Z,22.40
2022-10-23T11:24:57.263Z,22.60
2022-10-23T11:27:51.322Z,22.40
2022-10-23T11:30:34.770Z,22.10
2022-10-23T11:33:01.656Z,22.30
2022-10-23T11:36:00.674Z,22.40
2022-10-23T11:38:37.151Z,22.40
2022-10-23T11:41:07.255Z,22.50
2022-10-23T11:44:01.804Z,22.40
2022-10-23T11:46:37.290Z,22.30
2022-10-23T11:49:06.422Z,22.40
2022-10-23T11:51:36.706Z,22.50
2022-10-23T11:54:15.565Z,22.60
2022-10-23T11:57:14.646Z,22.60
2022-10-23T11:59:54.749Z,22.80
2022-10-23T12:02:41.597Z,22.90
2022-10-23T12:05:30.082Z,23.00
2022-10-23T12:07:59.988Z,23.10
2022-10-23T12:10:45.923Z,23.00
2022-10-23T12:13:48.414Z,22.80
2022-10-23T12:16:15.434Z,22.80
2022-10-23T12:19:17.806Z,22.90
2022-10-23T12:21:45.767Z,23.00
2022-10-23T12:24:56.485Z,23.20
2022-10-23T12:27:37.871Z,23.20
2022-10-23T12:30:33.275Z,23.30
2022-10-23T12:33:22.231Z,23.30
2022-10-23T12:36:33.687Z,23.20
2022-10-23T12:39:01.129Z,23.20
2022-10-23T12:41:30.716Z,23.20
2022-10-23T12:44:05.426Z,23.20
2022-10-23T12:46:32.267Z,23.20
2022-10-23T12:49:00.702Z,23.10
2022-10-23T12:51:30.275Z,23.20
2022-10-23T12:53:57.516Z,23.20
2022-10-23T12:56:35.189Z,23.10
2022-10-23T12:59:02.966Z,23.10
2022-10-23T13:01:34.872Z,23.10
2022-10-23T13:04:11.143Z,23.10
2022-10-23T13:06:39.981Z,23.10
2022-10-23T13:09:23.563Z,23.00
2022-10-23T13:11:52.297Z,23.10
2022-10-23T13:14:33.274Z,23.10
2022-10-23T13:17:05.579Z,23.00
2022-10-23T13:19:32.389Z,23.10
2022-10-23T13:22:00.358Z,23.20
2022-10-23T13:24:29.555Z,23.20
2022-10-23T13:26:57.834Z,23.20
2022-10-23T13:29:31.670Z,23.30
2022-10-23T13:32:10.581Z,23.40
2022-10-23T13:34:37.535Z,23.50
2022-10-23T13:37:24.706Z,23.50
2022-10-23T13:40:20.111Z,23.60
2022-10-23T13:42:57.293Z,23.60
2022-10-23T13:45:26.639Z,23.70
2022-10-23T13:47:54.620Z,23.70
2022-10-23T13:50:21.536Z,23.60
2022-10-23T13:52:48.522Z,23.50
2022-10-23T13:55:23.952Z,23.40
2022-10-23T13:57:50.961Z,23.20
2022-10-23T14:00:18.710Z,23.10
2022-10-23T14:02:45.702Z,23.10
2022-10-23T14:05:13.001Z,23.10
2022-10-23T14:07:39.953Z,23.00
2022-10-23T14:10:07.160Z,23.00
2022-10-23T14:12:43.682Z,22.90
2022-10-23T14:15:11.868Z,23.00
2022-10-23T14:17:38.931Z,23.00
2022-10-23T14:20:06.711Z,23.00
2022-10-23T14:22:33.868Z,23.10
2022-10-23T14:25:00.769Z,23.20
2022-10-23T14:27:27.686Z,23.20
2022-10-23T14:29:54.594Z,23.30
2022-10-23T14:32:21.532Z,23.20
2022-10-23T14:34:54.008Z,23.10
2022-10-23T14:37:21.334Z,23.00
2022-10-23T14:39:50.210Z,22.90
2022-10-23T14:42:17.627Z,22.90
2022-10-23T14:44:45.146Z,22.80
2022-10-23T14:47:12.228Z,22.80
2022-10-23T14:49:40.414Z,22.80
2022-10-23T14:52:08.310Z,22.70
2022-10-23T14:54:36.523Z,22.70
2022-10-23T14:57:04.077Z,22.60
2022-10-23T14:59:31.248Z,22.70
2022-10-23T15:01:58.144Z,22.70
2022-10-23T15:04:25.138Z,22.60
2022-10-23T15:06:52.607Z,22.50
2022-10-23T15:09:20.297Z,22.40
2022-10-23T15:11:47.702Z,22.30
2022-10-23T15:14:14.656Z,22.30
2022-10-23T15:16:42.196Z,22.20
2022-10-23T15:19:13.503Z,22.00
2022-10-23T15:21:44.307Z,21.90
2022-10-23T15:24:11.208Z,21.70
2022-10-23T15:26:38.640Z,21.60
2022-10-23T15:29:06.666Z,21.40
2022-10-23T15:31:40.897Z,21.30
2022-10-23T15:34:13.729Z,21.20
2022-10-23T15:36:41.145Z,21.10
2022-10-23T15:39:10.372Z,20.90
2022-10-23T15:41:38.926Z,20.80
2022-10-23T15:44:07.459Z,20.70
2022-10-23T15:46:34.682Z,20.60
2022-10-23T15:49:01.786Z,20.40
2022-10-23T15:51:29.045Z,20.30
2022-10-23T15:53:57.127Z,20.20
2022-10-23T15:56:25.061Z,20.10
2022-10-23T15:58:52.113Z,20.00
2022-10-23T16:01:19.179Z,19.90
2022-10-23T16:03:46.916Z,19.70
2022-10-23T16:06:15.732Z,19.70
2022-10-23T16:08:44.018Z,19.60
2022-10-23T16:11:25.338Z,19.60
2022-10-23T16:13:53.739Z,19.40
2022-10-23T16:16:20.704Z,19.40
2022-10-23T16:18:47.779Z,19.30
2022-10-23T16:21:23.136Z,19.20
2022-10-23T16:23:51.708Z,19.10
2022-10-23T16:26:19.504Z,19.00
2022-10-23T16:28:47.544Z,18.90
2022-10-23T16:31:20.538Z,18.90
2022-10-23T16:33:48.473Z,18.90
2022-10-23T16:36:16.239Z,18.80
2022-10-23T16:38:43.341Z,18.80
2022-10-23T16:41:10.474Z,18.70
2022-10-23T16:43:37.526Z,18.70
2022-10-23T16:46:06.514Z,18.60
2022-10-23T16:48:34.866Z,18.60
2022-10-23T16:51:09.257Z,18.60
2022-10-23T16:53:36.905Z,18.60
2022-10-23T16:56:08.078Z,18.50
2022-10-23T16:58:37.089Z,18.50
2022-10-23T17:01:08.070Z,18.40
2022-10-23T17:03:37.478Z,18.40
2022-10-23T17:06:08.880Z,18.30
2022-10-23T17:08:38.304Z,18.30
2022-10-23T17:11:22.893Z,18.20
2022-10-23T17:13:53.971Z,18.10
2022-10-23T17:16:37.679Z,18.10
2022-10-23T17:19:15.883Z,18.00
2022-10-23T17:21:48.481Z,17.90
2022-10-23T17:24:15.561Z,17.90
2022-10-23T17:26:42.796Z,17.90
2022-10-23T17:29:11.513Z,17.90
2022-10-23T17:31:41.065Z,17.80
2022-10-23T17:34:12.379Z,17.90
2022-10-23T17:36:43.323Z,17.80
2022-10-23T17:39:12.437Z,17.80
2022-10-23T17:41:39.995Z,17.80
2022-10-23T17:44:06.994Z,17.80
2022-10-23T17:46:34.143Z,17.70
2022-10-23T17:51:36.156Z,17.70
2022-10-23T17:54:06.351Z,17.70
2022-10-23T17:56:34.670Z,17.70
2022-10-23T17:59:07.755Z,17.60
2022-10-23T18:01:35.413Z,17.60
2022-10-23T18:04:04.862Z,17.50
2022-10-23T18:06:35.619Z,17.50
2022-10-23T18:09:05.079Z,17.40
2022-10-23T18:11:35.387Z,17.40
2022-10-23T18:14:03.383Z,17.40
2022-10-23T18:16:30.621Z,17.30
2022-10-23T18:18:59.826Z,17.30
2022-10-23T18:21:27.131Z,17.20
2022-10-23T18:23:54.376Z,17.20
2022-10-23T18:26:23.928Z,17.10
2022-10-23T18:28:53.373Z,17.10
2022-10-23T18:31:21.125Z,17.00
2022-10-23T18:33:48.127Z,17.00
2022-10-23T18:36:18.750Z,17.00
2022-10-23T18:38:45.817Z,17.00
2022-10-23T18:41:12.802Z,16.90
2022-10-23T18:43:44.384Z,16.80
2022-10-23T18:46:13.161Z,16.80
2022-10-23T18:48:41.228Z,16.70
2022-10-23T18:51:17.623Z,16.70
2022-10-23T18:53:47.861Z,16.60
2022-10-23T18:56:16.357Z,16.60
2022-10-23T18:58:43.467Z,16.50
2022-10-23T19:01:10.490Z,16.60
2022-10-23T19:03:37.507Z,16.60
2022-10-23T19:06:07.244Z,16.50
2022-10-23T19:08:40.141Z,16.60
2022-10-23T19:11:08.253Z,16.50
2022-10-23T19:13:39.145Z,16.50
2022-10-23T19:16:26.236Z,16.40
2022-10-23T19:19:00.670Z,16.40
2022-10-23T19:21:31.343Z,16.40
2022-10-23T19:24:03.312Z,16.30
2022-10-23T19:26:32.691Z,16.30
2022-10-23T19:29:00.231Z,16.20
2022-10-23T19:31:28.284Z,16.20
2022-10-23T19:33:55.634Z,16.20
2022-10-23T19:36:23.648Z,16.20
2022-10-23T19:38:51.233Z,16.20
2022-10-23T19:41:18.947Z,16.20
2022-10-23T19:43:46.609Z,16.20
2022-10-23T19:46:14.161Z,16.10
2022-10-23T19:48:44.738Z,16.10
2022-10-23T19:51:13.511Z,16.00
2022-10-23T19:53:42.126Z,16.00
2022-10-23T19:56:11.818Z,15.90
2022-10-23T19:58:39.498Z,15.90
2022-10-23T20:01:15.786Z,15.90
2022-10-23T20:03:45.606Z,15.80
2022-10-23T20:06:14.620Z,15.80
2022-10-23T20:08:42.026Z,15.70
2022-10-23T20:11:09.557Z,15.70
2022-10-23T20:13:36.763Z,15.70
2022-10-23T20:16:04.408Z,15.70
2022-10-23T20:18:31.628Z,15.70
2022-10-23T20:21:02.765Z,15.70
2022-10-23T20:23:29.680Z,15.70
2022-10-23T20:26:08.106Z,15.70
2022-10-23T20:28:35.982Z,15.60
2022-10-23T20:31:10.316Z,15.50
2022-10-23T20:33:39.133Z,15.60
2022-10-23T20:36:08.073Z,15.50
2022-10-23T20:38:36.058Z,15.50
2022-10-23T20:41:07.088Z,15.50
2022-10-23T20:43:34.097Z,15.50
2022-10-23T20:46:09.886Z,15.40
2022-10-23T20:48:41.367Z,15.40
2022-10-23T20:51:14.121Z,15.40
2022-10-23T20:53:41.432Z,15.30
2022-10-23T20:56:10.356Z,15.30
2022-10-23T20:58:37.369Z,15.20
2022-10-23T21:01:07.277Z,15.30
2022-10-23T21:03:34.402Z,15.20
2022-10-23T21:06:10.591Z,15.30
2022-10-23T21:08:37.993Z,15.30
2022-10-23T21:11:05.849Z,15.40
2022-10-23T21:13:32.786Z,15.40
2022-10-23T21:15:59.790Z,15.40
2022-10-23T21:18:45.048Z,15.30
2022-10-23T21:21:14.262Z,15.20
2022-10-23T21:23:41.233Z,15.10
2022-10-23T21:26:08.592Z,15.10
2022-10-23T21:28:35.885Z,15.00
2022-10-23T21:31:05.408Z,14.90
2022-10-23T21:33:32.991Z,14.90
2022-10-23T21:36:11.831Z,14.80
2022-10-23T21:38:40.263Z,14.90
2022-10-23T21:41:13.122Z,14.90
2022-10-23T21:43:40.236Z,15.00
2022-10-23T21:46:14.032Z,14.90
2022-10-23T21:48:41.377Z,14.90
2022-10-23T21:51:14.155Z,14.90
2022-10-23T21:53:41.155Z,14.80
2022-10-23T21:56:19.374Z,14.70
2022-10-23T21:58:46.254Z,14.70
2022-10-23T22:01:13.193Z,14.70
2022-10-23T22:03:40.220Z,14.70
2022-10-23T22:06:09.245Z,14.60
2022-10-23T22:08:36.214Z,14.60
2022-10-23T22:11:05.619Z,14.60
2022-10-23T22:13:32.524Z,14.50
2022-10-23T22:16:02.878Z,14.50
2022-10-23T22:18:29.894Z,14.40
2022-10-23T22:21:06.377Z,14.40
2022-10-23T22:23:33.672Z,14.50
2022-10-23T22:26:09.970Z,14.50
2022-10-23T22:28:36.946Z,14.40
2022-10-23T22:31:03.842Z,14.30
2022-10-23T22:33:31.773Z,14.30
2022-10-23T22:36:03.130Z,14.30
2022-10-23T22:38:32.260Z,14.30
2022-10-23T22:41:03.233Z,14.30
2022-10-23T22:43:30.646Z,14.30
2022-10-23T22:46:11.012Z,14.30
2022-10-23T22:48:39.003Z,14.20
2022-10-23T22:51:09.047Z,14.20
2022-10-23T22:53:36.441Z,14.10
2022-10-23T22:56:07.911Z,14.10
2022-10-23T22:58:35.723Z,14.10
2022-10-23T23:01:13.751Z,14.00
2022-10-23T23:03:41.346Z,14.00
2022-10-23T23:06:09.160Z,14.00
2022-10-23T23:08:38.066Z,13.90
2022-10-23T23:11:06.713Z,13.90
2022-10-23T23:13:34.655Z,13.80
2022-10-23T23:16:02.508Z,13.80
2022-10-23T23:18:30.610Z,13.80
2022-10-23T23:21:05.747Z,13.80
2022-10-23T23:23:32.686Z,13.80
2022-10-23T23:25:59.586Z,13.80
2022-10-23T23:28:26.692Z,13.70
2022-10-23T23:31:07.537Z,13.70
2022-10-23T23:33:34.997Z,13.70
2022-10-23T23:36:07.351Z,13.70
2022-10-23T23:38:35.152Z,13.70
2022-10-23T23:41:02.551Z,13.70
2022-10-23T23:43:30.066Z,13.70
2022-10-23T23:45:57.771Z,13.70
2022-10-23T23:48:25.594Z,13.70
2022-10-23T23:50:52.562Z,13.60
2022-10-23T23:53:19.501Z,13.60
2022-10-23T23:55:46.489Z,13.60
2022-10-23T23:58:13.520Z,13.60
